Time;durP1;ratioP1;P1;durP2;ratioP2;P2;SDS_P1;SDS_P2;PMS_P1;PMS_P2;Temp;Humidity;BMP_temperature;BMP_pressure;BME280_temperature;BME280_humidity;BME280_pressure;Samples;Min_cycle;Max_cycle;Signal;HPM_P1;HPM_P2
2023/12/16 00:02:22;;;;;;;18.90;11.00;;;6.70;99.90;;;;;;5138885;27;20461;-65
2023/12/16 00:04:49;;;;;;;21.37;9.73;;;6.80;99.90;;;;;;5139427;27;20554;-65
2023/12/16 00:07:16;;;;;;;14.70;9.53;;;6.80;99.90;;;;;;5139464;27;20811;-65
2023/12/16 00:09:43;;;;;;;17.00;10.17;;;6.70;99.90;;;;;;5139409;27;20558;-65
2023/12/16 00:12:11;;;;;;;17.20;8.43;;;6.70;99.90;;;;;;5139668;27;20840;-65
2023/12/16 00:14:38;;;;;;;21.70;8.40;;;6.70;58.90;;;;;;5138304;27;20490;-65
2023/12/16 00:17:06;;;;;;;18.10;8.93;;;6.70;99.90;;;;;;5139213;27;20455;-65
2023/12/16 00:19:34;;;;;;;20.40;9.70;;;6.70;99.90;;;;;;5139202;27;20508;-65
2023/12/16 00:22:02;;;;;;;16.43;8.73;;;6.70;99.90;;;;;;5139204;27;20898;-65
2023/12/16 00:24:29;;;;;;;20.27;9.00;;;6.70;99.90;;;;;;5138777;27;20450;-65
2023/12/16 00:26:56;;;;;;;14.97;8.97;;;6.70;99.90;;;;;;5138725;27;20490;-65
2023/12/16 00:29:23;;;;;;;20.03;10.37;;;6.70;99.90;;;;;;5139038;27;20455;-65
2023/12/16 00:31:51;;;;;;;18.43;9.63;;;6.70;99.90;;;;;;5138898;27;20455;-64
2023/12/16 00:34:18;;;;;;;18.53;8.50;;;6.70;99.90;;;;;;5139062;27;20544;-65
2023/12/16 00:36:48;;;;;;;19.50;9.73;;;6.70;99.90;;;;;;5138679;27;20463;-65
2023/12/16 00:39:15;;;;;;;22.57;10.23;;;6.70;99.90;;;;;;5138865;27;20860;-65
2023/12/16 00:41:42;;;;;;;18.37;9.43;;;6.70;99.90;;;;;;5138450;27;20463;-65
2023/12/16 00:44:10;;;;;;;22.00;9.40;;;6.70;99.90;;;;;;5138684;27;20458;-65
2023/12/16 00:46:37;;;;;;;19.33;10.37;;;6.60;99.90;;;;;;5138973;27;20458;-65
2023/12/16 00:49:04;;;;;;;16.10;8.03;;;6.60;99.90;;;;;;5138004;27;20549;-65
2023/12/16 00:51:32;;;;;;;18.50;9.93;;;6.60;99.90;;;;;;5138764;27;20455;-65
2023/12/16 00:54:00;;;;;;;17.53;8.93;;;6.60;99.90;;;;;;5138725;27;20522;-65
2023/12/16 00:56:27;;;;;;;20.17;8.90;;;6.60;99.90;;;;;;5138653;27;20462;-65
2023/12/16 00:58:56;;;;;;;19.77;9.50;;;6.60;99.90;;;;;;5138823;27;20922;-64
2023/12/16 01:01:24;;;;;;;16.73;9.50;;;6.60;99.90;;;;;;5138521;27;20458;-65
2023/12/16 01:03:51;;;;;;;24.27;9.00;;;6.70;99.90;;;;;;5138030;27;20545;-65
2023/12/16 01:06:18;;;;;;;16.00;9.13;;;6.70;99.90;;;;;;5138200;27;20455;-64
2023/12/16 01:08:46;;;;;;;16.30;8.50;;;6.70;99.90;;;;;;5138175;27;20482;-65
2023/12/16 01:11:16;;;;;;;14.47;9.00;;;6.70;99.90;;;;;;5138704;27;20486;-65
2023/12/16 01:13:43;;;;;;;18.07;10.23;;;6.60;99.90;;;;;;5138452;27;20484;-65
2023/12/16 01:16:10;;;;;;;17.70;8.83;;;6.60;99.90;;;;;;5138660;27;20876;-65
2023/12/16 01:18:37;;;;;;;20.93;10.60;;;6.60;99.90;;;;;;5138349;27;20429;-65
2023/12/16 01:21:06;;;;;;;19.53;8.30;;;6.60;99.90;;;;;;5138371;28;20508;-65
2023/12/16 01:23:33;;;;;;;17.93;9.20;;;6.60;1.00;;;;;;5138570;27;20490;-65
2023/12/16 01:26:01;;;;;;;16.33;9.30;;;6.60;1.00;;;;;;5140957;27;20486;-65
2023/12/16 01:28:30;;;;;;;16.80;9.23;;;6.60;1.00;;;;;;5142578;27;20785;-65
2023/12/16 01:30:57;;;;;;;28.77;8.90;;;6.60;1.00;;;;;;5142561;27;20946;-64
2023/12/16 01:33:24;;;;;;;18.03;9.70;;;6.60;1.00;;;;;;5142189;27;20454;-65
2023/12/16 01:35:51;;;;;;;18.93;8.53;;;6.60;99.90;;;;;;5142381;27;20459;-65
2023/12/16 01:38:19;;;;;;;18.53;8.90;;;6.60;99.90;;;;;;5142444;27;20909;-65
2023/12/16 01:40:46;;;;;;;22.10;10.03;;;6.60;99.90;;;;;;5142837;27;20763;-65
2023/12/16 01:43:14;;;;;;;18.53;9.80;;;6.60;99.90;;;;;;5142502;27;20752;-65
2023/12/16 01:45:43;;;;;;;15.73;8.17;;;6.60;99.90;;;;;;5141857;27;20451;-65
2023/12/16 01:48:12;;;;;;;18.17;8.77;;;6.60;99.90;;;;;;5142134;27;20454;-65
2023/12/16 01:50:40;;;;;;;19.73;8.40;;;6.60;99.90;;;;;;5142437;27;20482;-65
2023/12/16 01:53:10;;;;;;;15.50;8.87;;;6.70;1.00;;;;;;5142404;27;20544;-64
2023/12/16 01:55:38;;;;;;;16.33;9.20;;;6.70;99.90;;;;;;5141686;27;20490;-64
2023/12/16 01:58:05;;;;;;;17.53;8.23;;;6.60;99.90;;;;;;5142228;27;20524;-64
2023/12/16 02:00:33;;;;;;;17.40;8.13;;;6.60;99.90;;;;;;5142161;27;20498;-64
2023/12/16 02:03:02;;;;;;;14.40;7.53;;;6.60;99.90;;;;;;5142160;27;20537;-64
2023/12/16 02:05:29;;;;;;;18.07;8.50;;;6.50;99.90;;;;;;5141621;27;20461;-64
2023/12/16 02:07:57;;;;;;;21.87;8.40;;;6.60;99.90;;;;;;5141637;27;20489;-64
2023/12/16 02:10:24;;;;;;;15.80;9.10;;;6.60;99.90;;;;;;5141404;27;20553;-64
2023/12/16 02:12:51;;;;;;;15.70;8.10;;;6.50;99.90;;;;;;5142198;27;20812;-65
2023/12/16 02:15:18;;;;;;;19.50;8.10;;;6.50;99.90;;;;;;5141365;27;20526;-65
2023/12/16 02:17:46;;;;;;;11.57;6.80;;;6.50;99.90;;;;;;5141838;27;20501;-65
2023/12/16 02:20:15;;;;;;;15.10;7.13;;;6.60;99.90;;;;;;5141659;27;20553;-65
2023/12/16 02:22:44;;;;;;;16.17;7.70;;;6.60;15.90;;;;;;5141857;27;20462;-65
2023/12/16 02:25:14;;;;;;;17.50;7.60;;;6.50;1.00;;;;;;5141728;27;20473;-65
2023/12/16 02:27:42;;;;;;;16.07;7.37;;;6.60;1.00;;;;;;5141828;27;20888;-64
2023/12/16 02:30:10;;;;;;;14.83;6.83;;;6.60;1.00;;;;;;5141269;27;21010;-64
2023/12/16 02:32:37;;;;;;;17.73;6.90;;;6.60;1.00;;;;;;5141591;27;20549;-64
2023/12/16 02:35:05;;;;;;;14.23;7.20;;;6.60;1.00;;;;;;5141406;27;20482;-65
2023/12/16 02:37:33;;;;;;;17.60;7.50;;;6.60;1.00;;;;;;5140619;27;20704;-64
2023/12/16 02:40:00;;;;;;;11.83;7.07;;;6.50;1.00;;;;;;5140766;27;20482;-65
2023/12/16 02:42:28;;;;;;;15.83;7.10;;;6.60;1.00;;;;;;5141429;27;20778;-65
2023/12/16 02:44:56;;;;;;;11.33;7.10;;;6.60;1.00;;;;;;5141480;27;20451;-65
2023/12/16 02:47:23;;;;;;;17.80;7.27;;;6.60;1.00;;;;;;5140962;27;20837;-64
2023/12/16 02:49:50;;;;;;;27.53;8.83;;;6.60;1.00;;;;;;5141358;27;20879;-64
2023/12/16 02:52:17;;;;;;;13.20;7.10;;;6.60;1.00;;;;;;5141173;27;20461;-64
2023/12/16 02:54:44;;;;;;;18.17;7.70;;;6.60;1.00;;;;;;5141092;27;20486;-64
2023/12/16 02:57:12;;;;;;;14.80;7.20;;;6.60;1.00;;;;;;5141004;27;20455;-65
2023/12/16 02:59:40;;;;;;;11.33;6.40;;;6.60;1.00;;;;;;5140762;27;20455;-65
2023/12/16 03:02:07;;;;;;;14.00;6.20;;;6.60;1.00;;;;;;5140786;27;20541;-64
2023/12/16 03:04:34;;;;;;;12.90;5.77;;;6.60;1.00;;;;;;5140901;27;20539;-65
2023/12/16 03:07:02;;;;;;;11.77;6.80;;;6.60;1.00;;;;;;5140635;27;20503;-64
2023/12/16 03:09:30;;;;;;;15.90;6.67;;;6.50;99.90;;;;;;5140545;27;20495;-64
2023/12/16 03:11:57;;;;;;;12.90;6.07;;;6.50;99.90;;;;;;5140636;27;20474;-64
2023/12/16 03:14:24;;;;;;;15.47;5.83;;;6.60;99.90;;;;;;5140664;27;20490;-64
2023/12/16 03:16:53;;;;;;;12.43;5.60;;;6.60;99.90;;;;;;5140552;27;20486;-64
2023/12/16 03:19:20;;;;;;;11.30;5.70;;;6.60;99.90;;;;;;5140252;27;20939;-64
2023/12/16 03:21:47;;;;;;;10.13;5.97;;;6.60;99.90;;;;;;5140442;27;20504;-64
2023/12/16 03:24:15;;;;;;;11.50;5.13;;;6.60;99.90;;;;;;5140247;27;20553;-64
2023/12/16 03:26:42;;;;;;;13.70;4.70;;;6.60;99.90;;;;;;5140897;27;20553;-64
2023/12/16 03:29:09;;;;;;;16.73;7.00;;;6.60;85.20;;;;;;5140973;27;20476;-64
2023/12/16 03:31:36;;;;;;;10.47;5.53;;;6.60;99.90;;;;;;5140246;27;20465;-64
2023/12/16 03:34:05;;;;;;;14.93;5.70;;;6.60;75.50;;;;;;5140052;27;20879;-64
2023/12/16 03:36:32;;;;;;;12.40;6.20;;;6.60;78.50;;;;;;5140229;27;20799;-64
2023/12/16 03:38:59;;;;;;;19.73;6.60;;;6.50;99.90;;;;;;5140261;27;20494;-64
2023/12/16 03:41:26;;;;;;;13.80;5.60;;;6.50;99.90;;;;;;5140196;27;20490;-65
2023/12/16 03:43:54;;;;;;;19.80;4.80;;;6.50;99.90;;;;;;5140072;27;20489;-64
2023/12/16 03:46:21;;;;;;;11.90;6.20;;;6.50;93.10;;;;;;5139250;27;20487;-64
2023/12/16 03:48:48;;;;;;;12.43;5.63;;;6.60;55.30;;;;;;5138885;27;20490;-64
2023/12/16 03:51:17;;;;;;;13.97;5.27;;;6.60;1.00;;;;;;5140061;27;20546;-64
2023/12/16 03:53:44;;;;;;;9.87;5.03;;;6.60;1.00;;;;;;5139368;27;20545;-64
2023/12/16 03:56:11;;;;;;;17.87;6.03;;;6.60;1.00;;;;;;5139611;27;20493;-64
2023/12/16 03:58:38;;;;;;;10.97;5.37;;;6.60;1.00;;;;;;5139723;27;20459;-64
2023/12/16 04:01:13;;;;;;;9.50;5.33;;;6.60;1.00;;;;;;5139668;27;20867;-63
2023/12/16 04:03:40;;;;;;;12.40;4.57;;;6.70;1.00;;;;;;5139323;27;20516;-64
2023/12/16 04:06:11;;;;;;;10.43;5.10;;;6.70;1.00;;;;;;5139427;27;20826;-63
2023/12/16 04:08:43;;;;;;;9.90;4.77;;;6.70;1.00;;;;;;5138835;27;20478;-63
2023/12/16 04:11:10;;;;;;;8.80;5.17;;;6.60;1.00;;;;;;5139678;27;20490;-63
2023/12/16 04:13:37;;;;;;;17.53;5.50;;;6.60;1.00;;;;;;5138683;27;20504;-63
2023/12/16 04:16:06;;;;;;;13.13;6.00;;;6.60;1.00;;;;;;5139108;27;20943;-63
2023/12/16 04:18:34;;;;;;;10.33;5.50;;;6.60;26.50;;;;;;5139425;27;20459;-64
2023/12/16 04:21:01;;;;;;;12.87;5.37;;;6.60;99.90;;;;;;5139167;27;20541;-63
2023/12/16 04:23:29;;;;;;;13.63;5.70;;;6.60;99.90;;;;;;5139135;27;20459;-63
2023/12/16 04:25:57;;;;;;;12.23;5.90;;;6.50;99.90;;;;;;5139117;27;20457;-63
2023/12/16 04:28:24;;;;;;;9.17;5.70;;;6.50;99.90;;;;;;5139337;27;20498;-63
2023/12/16 04:30:52;;;;;;;13.57;5.40;;;6.50;99.90;;;;;;5139234;27;20462;-63
2023/12/16 04:33:19;;;;;;;11.77;6.27;;;6.50;99.90;;;;;;5138455;27;20468;-63
2023/12/16 04:35:46;;;;;;;12.67;7.00;;;6.40;99.90;;;;;;5138904;27;20586;-63
2023/12/16 04:38:14;;;;;;;15.47;7.33;;;6.40;99.90;;;;;;5139046;27;20490;-63
2023/12/16 04:40:41;;;;;;;17.17;6.97;;;6.40;99.90;;;;;;5138850;27;20490;-63
2023/12/16 04:43:09;;;;;;;11.00;6.63;;;6.40;99.90;;;;;;5139123;27;20541;-63
2023/12/16 04:45:37;;;;;;;16.07;6.27;;;6.40;99.90;;;;;;5138270;27;20457;-63
2023/12/16 04:48:05;;;;;;;11.00;6.17;;;6.40;99.90;;;;;;5137853;27;20545;-63
2023/12/16 04:50:32;;;;;;;16.00;6.70;;;6.30;99.90;;;;;;5138765;27;20512;-63
2023/12/16 04:52:59;;;;;;;17.80;6.80;;;6.40;99.90;;;;;;5138409;27;20454;-63
2023/12/16 04:55:26;;;;;;;13.27;7.30;;;6.40;99.90;;;;;;5137967;27;20546;-64
2023/12/16 04:57:53;;;;;;;12.80;7.10;;;6.40;99.90;;;;;;5138201;27;20545;-63
2023/12/16 05:00:22;;;;;;;16.20;7.80;;;6.40;99.90;;;;;;5138013;27;20825;-63
2023/12/16 05:02:49;;;;;;;10.80;6.50;;;6.40;99.90;;;;;;5138817;27;20459;-63
2023/12/16 05:05:16;;;;;;;13.60;7.13;;;6.40;99.90;;;;;;5138256;27;20884;-63
2023/12/16 05:07:44;;;;;;;10.77;6.33;;;6.40;99.90;;;;;;5137707;27;20526;-64
2023/12/16 05:10:12;;;;;;;15.30;6.83;;;6.40;99.90;;;;;;5138260;27;20960;-63
2023/12/16 05:12:42;;;;;;;14.90;7.73;;;6.40;99.90;;;;;;5138299;27;20454;-63
2023/12/16 05:15:10;;;;;;;13.93;7.57;;;6.30;99.90;;;;;;5138326;27;20994;-64
2023/12/16 05:17:41;;;;;;;13.10;6.80;;;6.40;99.90;;;;;;5138078;27;20879;-63
2023/12/16 05:20:09;;;;;;;17.27;6.97;;;6.40;99.90;;;;;;5138056;27;20959;-63
2023/12/16 05:22:36;;;;;;;16.80;7.83;;;6.30;99.90;;;;;;5138488;27;20465;-63
2023/12/16 05:25:05;;;;;;;16.10;6.30;;;6.30;99.90;;;;;;5138519;28;20425;-63
2023/12/16 05:27:33;;;;;;;9.10;6.23;;;6.30;99.90;;;;;;5138259;28;20804;-64
2023/12/16 05:30:02;;;;;;;17.63;7.77;;;6.30;99.90;;;;;;5137990;27;20463;-64
2023/12/16 05:32:29;;;;;;;15.17;6.90;;;6.40;99.90;;;;;;5138265;28;20491;-64
2023/12/16 05:34:58;;;;;;;13.80;7.07;;;6.40;98.80;;;;;;5137650;28;20482;-64
2023/12/16 05:37:25;;;;;;;17.90;6.10;;;6.30;72.90;;;;;;5137788;28;20504;-64
2023/12/16 05:39:53;;;;;;;15.23;6.07;;;6.40;82.80;;;;;;5137981;28;20451;-64
2023/12/16 05:42:20;;;;;;;12.80;6.43;;;6.40;1.00;;;;;;5137815;28;20461;-64
2023/12/16 05:44:47;;;;;;;12.70;6.10;;;6.40;20.90;;;;;;5137953;28;20549;-64
2023/12/16 05:47:16;;;;;;;15.70;6.33;;;6.40;56.80;;;;;;5138077;28;20935;-64
2023/12/16 05:49:44;;;;;;;13.70;7.00;;;6.40;99.90;;;;;;5137388;28;20458;-64
2023/12/16 05:52:12;;;;;;;13.57;6.73;;;6.40;76.00;;;;;;5138002;27;20518;-63
2023/12/16 05:54:40;;;;;;;18.60;6.97;;;6.40;40.70;;;;;;5137274;28;20458;-64
2023/12/16 05:57:07;;;;;;;13.67;6.67;;;6.40;64.50;;;;;;5137832;28;20525;-64
2023/12/16 05:59:35;;;;;;;15.03;7.50;;;6.50;37.00;;;;;;5137836;28;20778;-64
2023/12/16 06:02:02;;;;;;;14.47;6.80;;;6.50;29.30;;;;;;5137387;28;20465;-64
2023/12/16 06:04:30;;;;;;;13.43;5.60;;;6.40;90.90;;;;;;5137130;28;20490;-64
2023/12/16 06:06:58;;;;;;;13.23;5.70;;;6.40;99.90;;;;;;5137781;28;20429;-63
2023/12/16 06:09:26;;;;;;;12.27;6.50;;;6.40;99.90;;;;;;5137126;28;20537;-63
2023/12/16 06:11:55;;;;;;;15.40;6.90;;;6.50;99.90;;;;;;5139180;27;20914;-64
2023/12/16 06:14:21;;;;;;;17.80;6.40;;;6.40;99.90;;;;;;5141701;27;20513;-63
2023/12/16 06:16:49;;;;;;;11.93;5.00;;;6.50;99.90;;;;;;5141763;27;20482;-63
2023/12/16 06:19:17;;;;;;;10.60;5.70;;;6.40;56.90;;;;;;5141819;27;20450;-63
2023/12/16 06:21:44;;;;;;;14.33;6.47;;;6.40;55.10;;;;;;5141290;27;20511;-63
2023/12/16 06:24:12;;;;;;;14.37;6.60;;;6.40;34.90;;;;;;5141761;27;20457;-63
2023/12/16 06:26:40;;;;;;;16.53;6.57;;;6.40;79.90;;;;;;5140711;27;20508;-63
2023/12/16 06:29:08;;;;;;;15.37;6.80;;;6.50;99.90;;;;;;5140024;27;20493;-63
2023/12/16 06:31:36;;;;;;;16.13;6.67;;;6.40;99.90;;;;;;5139788;27;20847;-63
2023/12/16 06:34:03;;;;;;;13.17;6.07;;;6.40;99.90;;;;;;5140406;27;20773;-63
2023/12/16 06:36:31;;;;;;;17.23;6.47;;;6.40;99.90;;;;;;5140209;27;20494;-64
2023/12/16 06:38:58;;;;;;;13.73;6.43;;;6.40;99.90;;;;;;5140132;27;20461;-63
2023/12/16 06:41:29;;;;;;;18.70;6.50;;;6.40;99.90;;;;;;5139141;27;20760;-63
2023/12/16 06:43:57;;;;;;;15.97;5.87;;;6.40;99.90;;;;;;5139247;27;20459;-63
2023/12/16 06:46:24;;;;;;;15.40;6.73;;;6.40;99.90;;;;;;5139202;27;20461;-64
2023/12/16 06:48:52;;;;;;;12.20;6.00;;;6.40;99.90;;;;;;5139245;27;20551;-63
2023/12/16 06:51:19;;;;;;;13.77;6.50;;;6.40;99.90;;;;;;5138887;27;20486;-63
2023/12/16 06:53:46;;;;;;;11.67;5.83;;;6.40;99.90;;;;;;5139104;27;20557;-63
2023/12/16 06:56:14;;;;;;;17.40;6.07;;;6.40;99.90;;;;;;5139828;27;20498;-63
2023/12/16 06:58:43;;;;;;;15.03;5.97;;;6.40;99.90;;;;;;5139638;27;20960;-63
2023/12/16 07:01:12;;;;;;;11.83;5.27;;;6.40;99.90;;;;;;5139663;27;20502;-63
2023/12/16 07:03:39;;;;;;;13.63;5.57;;;6.40;99.90;;;;;;5139271;27;20461;-63
2023/12/16 07:06:07;;;;;;;9.43;5.03;;;6.40;99.90;;;;;;5140080;27;20454;-63
2023/12/16 07:08:36;;;;;;;12.07;6.20;;;6.40;99.90;;;;;;5139525;27;20846;-63
2023/12/16 07:11:05;;;;;;;14.00;6.80;;;6.40;99.90;;;;;;5140116;27;20550;-63
2023/12/16 07:13:32;;;;;;;11.03;6.10;;;6.50;99.90;;;;;;5140043;27;20876;-63
2023/12/16 07:15:59;;;;;;;12.80;5.20;;;6.50;99.90;;;;;;5139976;27;20581;-64
2023/12/16 07:18:28;;;;;;;12.00;5.53;;;6.50;99.90;;;;;;5140049;27;20502;-63
2023/12/16 07:20:55;;;;;;;13.07;6.13;;;6.50;99.90;;;;;;5140503;27;20554;-63
2023/12/16 07:23:23;;;;;;;12.20;6.10;;;6.50;99.90;;;;;;5139944;27;20429;-63
2023/12/16 07:25:51;;;;;;;13.73;8.30;;;6.50;99.90;;;;;;5139140;27;20904;-63
2023/12/16 07:28:21;;;;;;;13.00;5.23;;;6.50;99.90;;;;;;5140069;27;20458;-63
2023/12/16 07:30:48;;;;;;;15.63;6.70;;;6.50;99.90;;;;;;5140270;27;20535;-63
2023/12/16 07:33:15;;;;;;;11.63;6.63;;;6.50;99.90;;;;;;5139968;27;20505;-63
2023/12/16 07:35:44;;;;;;;19.50;7.77;;;6.50;99.90;;;;;;5139568;27;20493;-64
2023/12/16 07:38:12;;;;;;;23.50;10.70;;;6.50;99.90;;;;;;5139662;27;20466;-63
2023/12/16 07:40:39;;;;;;;16.43;8.50;;;6.50;99.90;;;;;;5139685;27;20557;-63
2023/12/16 07:43:06;;;;;;;13.13;7.63;;;6.50;99.90;;;;;;5139186;27;20434;-63
2023/12/16 07:45:36;;;;;;;16.07;9.57;;;6.50;99.90;;;;;;5139262;27;20442;-63
2023/12/16 07:48:03;;;;;;;13.60;7.97;;;6.50;99.90;;;;;;5139164;27;20458;-63
2023/12/16 07:50:30;;;;;;;12.50;6.13;;;6.50;99.90;;;;;;5139458;27;20518;-63
2023/12/16 07:52:59;;;;;;;15.17;7.00;;;6.50;99.90;;;;;;5139373;27;20501;-63
2023/12/16 07:55:27;;;;;;;11.47;5.80;;;6.50;99.90;;;;;;5138983;27;20450;-65
2023/12/16 07:57:55;;;;;;;18.00;6.23;;;6.50;99.90;;;;;;5139242;27;20482;-64
2023/12/16 08:00:22;;;;;;;12.43;6.80;;;6.50;99.90;;;;;;5139066;27;20875;-64
2023/12/16 08:02:49;;;;;;;15.50;6.30;;;6.50;99.90;;;;;;5139467;27;20454;-65
2023/12/16 08:05:18;;;;;;;8.07;5.67;;;6.50;99.90;;;;;;5139008;27;20494;-64
2023/12/16 08:07:46;;;;;;;14.30;5.70;;;6.50;99.90;;;;;;5138576;27;20483;-65
2023/12/16 08:10:15;;;;;;;15.50;5.47;;;6.60;99.90;;;;;;5139295;27;20459;-64
2023/12/16 08:12:42;;;;;;;11.07;5.13;;;6.60;99.90;;;;;;5139542;27;20875;-64
2023/12/16 08:15:10;;;;;;;13.90;6.30;;;6.60;99.90;;;;;;5139321;27;20455;-64
2023/12/16 08:17:37;;;;;;;15.57;5.80;;;6.60;99.90;;;;;;5138791;27;20521;-64
2023/12/16 08:20:05;;;;;;;12.03;6.20;;;6.70;99.90;;;;;;5139177;27;20434;-64
2023/12/16 08:22:32;;;;;;;19.47;7.10;;;6.60;99.90;;;;;;5139021;27;20504;-64
2023/12/16 08:25:00;;;;;;;17.03;7.63;;;6.70;99.90;;;;;;5139285;27;20451;-64
2023/12/16 08:27:28;;;;;;;17.70;7.73;;;6.70;99.90;;;;;;5138693;27;20503;-64
2023/12/16 08:29:56;;;;;;;12.43;6.17;;;6.70;99.90;;;;;;5137490;27;20880;-64
2023/12/16 08:32:23;;;;;;;18.40;7.30;;;6.70;99.90;;;;;;5138027;27;20872;-64
2023/12/16 08:34:50;;;;;;;11.53;6.13;;;6.70;99.90;;;;;;5138423;27;20489;-65
2023/12/16 08:37:17;;;;;;;13.17;6.00;;;6.80;99.90;;;;;;5137426;27;20577;-65
2023/12/16 08:39:45;;;;;;;15.13;5.50;;;6.80;99.90;;;;;;5136988;27;20495;-64
2023/12/16 08:42:12;;;;;;;10.03;5.60;;;6.80;99.90;;;;;;5136249;27;20516;-65
2023/12/16 08:44:41;;;;;;;15.47;6.33;;;6.80;99.90;;;;;;5137237;27;20433;-64
2023/12/16 08:47:08;;;;;;;13.43;5.27;;;6.90;99.90;;;;;;5137412;27;20455;-62
2023/12/16 08:49:35;;;;;;;12.03;6.50;;;6.80;99.90;;;;;;5135946;27;20545;-62
2023/12/16 08:52:02;;;;;;;13.50;5.87;;;6.80;99.90;;;;;;5138383;27;20468;-62
2023/12/16 08:54:30;;;;;;;11.60;4.90;;;6.70;99.90;;;;;;5115975;28;20430;-62
2023/12/16 08:56:57;;;;;;;20.70;6.90;;;6.70;99.90;;;;;;5117602;28;20525;-63
2023/12/16 08:59:24;;;;;;;18.57;6.30;;;6.70;99.90;;;;;;5115166;28;20485;-62
2023/12/16 09:01:53;;;;;;;18.90;6.27;;;6.80;99.90;;;;;;5115538;28;20901;-62
2023/12/16 09:04:20;;;;;;;12.43;5.03;;;7.00;99.90;;;;;;5116454;28;20566;-63
2023/12/16 09:06:47;;;;;;;12.80;5.67;;;7.10;99.90;;;;;;5116525;28;20451;-62
2023/12/16 09:09:14;;;;;;;11.10;5.60;;;7.30;99.90;;;;;;5115807;28;20510;-62
2023/12/16 09:11:44;;;;;;;13.93;6.50;;;7.40;99.90;;;;;;5127962;28;20451;-62
2023/12/16 09:14:11;;;;;;;13.67;5.93;;;7.50;93.80;;;;;;5137980;27;20545;-63
2023/12/16 09:16:38;;;;;;;12.77;5.00;;;7.50;33.70;;;;;;5138148;27;20461;-62
2023/12/16 09:19:08;;;;;;;7.90;5.00;;;7.60;34.10;;;;;;5137491;28;20454;-63
2023/12/16 09:21:36;;;;;;;10.40;4.53;;;7.60;73.70;;;;;;5137946;28;20481;-63
2023/12/16 09:24:04;;;;;;;17.50;5.13;;;7.70;45.20;;;;;;5138113;27;20517;-62
2023/12/16 09:26:32;;;;;;;12.97;5.10;;;7.70;41.00;;;;;;5138288;28;20459;-62
2023/12/16 09:29:00;;;;;;;18.63;5.90;;;7.80;21.00;;;;;;5138046;27;20433;-62
2023/12/16 09:31:27;;;;;;;16.03;4.90;;;7.90;1.00;;;;;;5138253;28;20465;-62
2023/12/16 09:33:55;;;;;;;11.83;4.70;;;7.90;1.00;;;;;;5138021;27;20476;-62
2023/12/16 09:36:27;;;;;;;14.87;5.13;;;7.90;1.00;;;;;;5137426;28;20487;-62
2023/12/16 09:38:54;;;;;;;10.60;4.50;;;7.80;69.80;;;;;;5138478;28;20465;-62
2023/12/16 09:41:23;;;;;;;12.43;4.73;;;7.80;10.80;;;;;;5137934;28;20455;-62
2023/12/16 09:43:53;;;;;;;12.53;4.53;;;7.70;94.40;;;;;;5137854;28;20896;-62
2023/12/16 09:46:23;;;;;;;14.87;5.00;;;7.80;1.00;;;;;;5140437;27;20455;-62
2023/12/16 09:48:51;;;;;;;10.00;5.10;;;7.80;99.90;;;;;;5142639;27;20540;-62
2023/12/16 09:51:20;;;;;;;12.00;4.80;;;7.90;25.80;;;;;;5141290;27;20515;-63
2023/12/16 09:53:49;;;;;;;10.17;4.20;;;7.90;21.70;;;;;;5141489;27;20762;-62
2023/12/16 09:56:18;;;;;;;10.33;4.80;;;8.00;99.90;;;;;;5140503;27;20553;-62
2023/12/16 09:58:47;;;;;;;12.03;5.20;;;8.00;99.90;;;;;;5140101;27;20465;-62
2023/12/16 10:01:16;;;;;;;15.03;6.10;;;8.00;99.90;;;;;;5140264;27;20769;-63
2023/12/16 10:03:47;;;;;;;15.03;5.00;;;8.10;99.90;;;;;;5140052;27;20467;-62
2023/12/16 10:06:14;;;;;;;15.20;5.80;;;8.10;12.80;;;;;;5140353;27;20737;-62
2023/12/16 10:08:42;;;;;;;10.03;4.43;;;8.10;99.90;;;;;;5139616;27;20493;-62
2023/12/16 10:11:12;;;;;;;13.80;6.07;;;8.10;1.00;;;;;;5140540;27;20579;-62
2023/12/16 10:13:54;;;;;;;16.20;5.90;;;8.30;1.00;;;;;;5141619;27;20501;-62
2023/12/16 10:16:23;;;;;;;13.67;4.80;;;8.50;1.00;;;;;;5139451;27;20523;-61
2023/12/16 10:18:53;;;;;;;17.50;5.17;;;8.50;21.80;;;;;;5148438;27;20465;-62
2023/12/16 10:21:25;;;;;;;12.23;5.70;;;8.50;17.10;;;;;;5161314;27;20454;-62
2023/12/16 10:23:52;;;;;;;18.43;5.53;;;8.60;1.00;;;;;;5160410;27;20724;-62
2023/12/16 10:26:21;;;;;;;14.27;5.27;;;8.50;16.80;;;;;;5160007;27;20464;-62
2023/12/16 10:28:49;;;;;;;14.37;5.00;;;8.50;1.00;;;;;;5160425;27;20465;-62
2023/12/16 10:31:18;;;;;;;12.10;5.43;;;8.50;99.90;;;;;;5160521;27;20458;-62
2023/12/16 10:33:45;;;;;;;13.63;5.30;;;8.60;99.90;;;;;;5160704;27;20457;-62
2023/12/16 10:36:13;;;;;;;12.50;4.10;;;8.70;99.90;;;;;;5161182;27;20809;-62
2023/12/16 10:38:40;;;;;;;11.13;4.70;;;8.80;99.90;;;;;;5161531;27;20458;-61
2023/12/16 10:41:08;;;;;;;8.70;4.63;;;8.90;99.90;;;;;;5161890;27;20458;-62
2023/12/16 10:43:38;;;;;;;16.10;5.80;;;8.90;22.20;;;;;;5161812;27;20435;-62
2023/12/16 10:46:07;;;;;;;14.23;5.07;;;9.00;99.90;;;;;;5161905;27;20548;-62
2023/12/16 10:48:35;;;;;;;13.77;4.73;;;9.00;1.00;;;;;;5161580;27;20854;-62
2023/12/16 10:51:04;;;;;;;14.23;5.80;;;9.00;1.00;;;;;;5161695;27;20758;-62
2023/12/16 10:53:38;;;;;;;12.30;5.00;;;9.00;1.00;;;;;;5161105;27;20511;-62
2023/12/16 10:56:17;;;;;;;8.43;4.00;;;9.00;1.00;;;;;;5161645;27;20453;-62
2023/12/16 10:58:55;;;;;;;16.50;5.50;;;9.00;1.00;;;;;;5160856;27;20457;-62
2023/12/16 11:01:29;;;;;;;16.73;5.40;;;8.90;1.00;;;;;;5161387;27;20454;-62
2023/12/16 11:04:03;;;;;;;17.07;5.17;;;8.90;1.00;;;;;;5161090;27;20454;-62
2023/12/16 11:06:36;;;;;;;14.80;6.03;;;8.90;1.00;;;;;;5137879;27;20548;-62
2023/12/16 11:09:06;;;;;;;22.03;5.73;;;8.90;1.00;;;;;;5139599;27;20935;-62
2023/12/16 11:11:34;;;;;;;14.23;4.30;;;8.80;1.00;;;;;;5140138;27;20459;-61
2023/12/16 11:14:04;;;;;;;12.07;4.83;;;8.90;1.00;;;;;;5140256;27;20457;-61
2023/12/16 11:16:42;;;;;;;19.00;7.00;;;8.90;1.00;;;;;;5140474;27;20507;-63
2023/12/16 11:19:11;;;;;;;10.43;4.67;;;8.80;1.00;;;;;;5140210;27;20501;-61
2023/12/16 11:21:42;;;;;;;12.30;4.20;;;8.80;1.00;;;;;;5140059;27;20781;-61
2023/12/16 11:24:10;;;;;;;10.70;4.67;;;8.80;1.00;;;;;;5140457;27;20455;-61
2023/12/16 11:26:38;;;;;;;18.30;4.83;;;8.90;1.00;;;;;;5140429;27;20454;-62
2023/12/16 11:29:07;;;;;;;12.20;4.90;;;8.90;1.00;;;;;;5140236;27;20546;-62
2023/12/16 11:31:36;;;;;;;14.30;4.73;;;8.90;1.00;;;;;;5139734;27;20898;-61
2023/12/16 11:34:05;;;;;;;14.17;4.60;;;8.90;1.00;;;;;;5139712;27;20549;-61
2023/12/16 11:37:02;;;;;;;14.43;6.47;;;8.90;1.00;;;;;;5139965;27;20498;-61
2023/12/16 11:39:40;;;;;;;15.97;5.70;;;8.90;1.00;;;;;;5122031;27;20474;-61
2023/12/16 11:42:09;;;;;;;13.93;4.50;;;8.90;22.90;;;;;;5139529;27;20454;-62
2023/12/16 11:44:54;;;;;;;19.27;5.10;;;8.90;45.00;;;;;;5138414;27;20520;-62
2023/12/16 11:47:23;;;;;;;14.77;5.67;;;8.90;26.00;;;;;;5138515;27;20898;-61
2023/12/16 11:49:50;;;;;;;11.97;4.77;;;9.00;20.10;;;;;;5137484;27;20451;-61
2023/12/16 11:52:20;;;;;;;12.93;4.63;;;9.00;1.00;;;;;;5137607;27;20795;-61
2023/12/16 11:54:52;;;;;;;24.70;4.30;;;8.90;1.00;;;;;;5138503;27;20431;-62
2023/12/16 11:57:23;;;;;;;15.43;5.27;;;8.90;39.60;;;;;;5138303;27;20483;-62
2023/12/16 11:59:52;;;;;;;11.57;5.10;;;8.90;4.50;;;;;;5139077;27;20492;-61
2023/12/16 12:02:20;;;;;;;13.70;5.27;;;8.90;31.10;;;;;;5138410;27;20460;-61
2023/12/16 12:04:48;;;;;;;16.53;5.20;;;8.90;99.90;;;;;;5139031;27;20548;-61
2023/12/16 12:07:16;;;;;;;13.37;5.17;;;8.90;1.00;;;;;;5139599;27;20487;-60
2023/12/16 12:09:45;;;;;;;10.93;4.70;;;8.90;51.20;;;;;;5138505;27;20482;-62
2023/12/16 12:12:13;;;;;;;14.93;6.30;;;9.00;1.00;;;;;;5138776;27;20483;-61
2023/12/16 12:14:45;;;;;;;15.00;5.03;;;9.00;1.00;;;;;;5139463;27;20827;-61
2023/12/16 12:17:14;;;;;;;7.37;4.33;;;9.10;9.50;;;;;;5139599;27;20495;-61
2023/12/16 12:19:43;;;;;;;11.60;4.50;;;9.10;1.00;;;;;;5139206;27;20537;-61
2023/12/16 12:22:10;;;;;;;15.47;5.43;;;9.10;12.00;;;;;;5139354;27;20552;-61
2023/12/16 12:24:38;;;;;;;9.97;5.20;;;9.00;1.00;;;;;;5139171;27;20961;-62
2023/12/16 12:27:05;;;;;;;11.20;4.27;;;9.00;99.90;;;;;;5139132;27;20478;-61
2023/12/16 12:29:54;;;;;;;16.73;6.50;;;8.90;50.80;;;;;;5138878;27;20481;-61
2023/12/16 12:32:23;;;;;;;10.53;5.70;;;8.90;96.60;;;;;;5139041;27;20457;-62
2023/12/16 12:35:01;;;;;;;14.30;5.53;;;8.90;99.90;;;;;;5138870;27;20549;-61
2023/12/16 12:37:35;;;;;;;17.13;5.10;;;8.90;99.90;;;;;;5138947;27;20490;-61
2023/12/16 12:40:02;;;;;;;16.43;5.47;;;9.00;99.90;;;;;;5138917;27;20478;-61
2023/12/16 12:42:30;;;;;;;15.03;5.77;;;8.80;99.90;;;;;;5138905;27;20450;-61
2023/12/16 12:44:58;;;;;;;15.23;5.20;;;8.80;99.90;;;;;;5138818;27;20433;-61
2023/12/16 12:47:32;;;;;;;17.37;6.80;;;8.90;99.90;;;;;;5138442;27;20455;-61
2023/12/16 12:50:00;;;;;;;16.83;6.10;;;8.90;85.50;;;;;;5137963;27;20458;-61
2023/12/16 12:52:37;;;;;;;14.30;6.23;;;8.90;99.90;;;;;;5129902;27;20763;-61
2023/12/16 12:55:06;;;;;;;17.63;4.97;;;8.80;72.90;;;;;;5138001;27;20457;-61
2023/12/16 12:57:33;;;;;;;12.80;5.43;;;8.70;99.90;;;;;;5138209;27;20525;-61